Time;durP1;ratioP1;P1;durP2;ratioP2;P2;SDS_P1;SDS_P2;PMS_P1;PMS_P2;Temp;Humidity;BMP_temperature;BMP_pressure;BME280_temperature;BME280_humidity;BME280_pressure;Samples;Min_cycle;Max_cycle;Signal;HPM_P1;HPM_P2
2022/12/19 00:01:37;;;;;;;54.20;22.90;;;;;;;-6.83;83.50;101025.59;2173255;81;20963;-79
2022/12/19 00:04:37;;;;;;;53.07;21.87;;;;;;;-6.85;83.51;101021.61;2179975;81;21036;-79
2022/12/19 00:07:37;;;;;;;47.40;22.17;;;;;;;-6.89;83.75;101018.55;2174472;82;20953;-80
2022/12/19 00:10:38;;;;;;;51.47;21.43;;;;;;;-6.90;83.80;101020.18;2171599;81;21288;-80
2022/12/19 00:13:38;;;;;;;54.50;21.93;;;;;;;-6.89;83.75;101025.80;2170877;81;20997;-79
2022/12/19 00:16:39;;;;;;;54.40;22.67;;;;;;;-6.91;83.81;101032.70;2171348;81;20894;-79
2022/12/19 00:19:39;;;;;;;51.57;21.77;;;;;;;-6.89;84.05;101032.14;2170767;81;21383;-79
2022/12/19 00:22:39;;;;;;;44.77;20.83;;;;;;;-6.87;84.19;101023.44;2170928;81;20925;-79
2022/12/19 00:25:40;;;;;;;55.07;24.27;;;;;;;-6.90;84.01;101029.44;2171241;81;20933;-78
2022/12/19 00:28:40;;;;;;;54.70;24.67;;;;;;;-6.92;84.34;101025.81;2171381;81;21341;-79
2022/12/19 00:31:41;;;;;;;50.90;23.67;;;;;;;-6.94;84.22;101024.33;2171129;81;20933;-80
2022/12/19 00:34:41;;;;;;;65.53;25.93;;;;;;;-6.88;84.48;101024.16;2171134;81;20953;-79
2022/12/19 00:37:41;;;;;;;68.50;27.20;;;;;;;-6.89;84.28;101022.35;2171101;81;21392;-79
2022/12/19 00:40:42;;;;;;;64.53;26.67;;;;;;;-6.90;84.39;101020.18;2170034;81;20977;-79
2022/12/19 00:43:45;;;;;;;63.90;26.73;;;;;;;-6.86;84.38;101018.53;2170336;81;20941;-79
2022/12/19 00:46:43;;;;;;;65.03;27.57;;;;;;;-6.85;84.35;101019.06;2170868;81;21340;-80
2022/12/19 00:49:43;;;;;;;59.60;26.17;;;;;;;-6.87;84.40;101017.08;2170598;81;20906;-80
2022/12/19 00:52:43;;;;;;;68.00;26.27;;;;;;;-6.91;84.27;101023.81;2170951;81;20917;-80
2022/12/19 00:55:44;;;;;;;63.10;27.00;;;;;;;-6.91;84.62;101020.91;2170851;81;20969;-80
2022/12/19 00:58:44;;;;;;;60.60;26.77;;;;;;;-6.95;84.70;101011.47;2171028;82;20925;-80
2022/12/19 01:01:45;;;;;;;61.73;26.33;;;;;;;-6.91;84.78;101011.12;2171019;81;20936;-80
2022/12/19 01:04:45;;;;;;;59.20;25.37;;;;;;;-6.87;84.54;101004.39;2170693;81;21308;-81
2022/12/19 01:07:45;;;;;;;62.03;26.27;;;;;;;-6.84;84.84;101001.83;2170864;81;21434;-80
2022/12/19 01:10:46;;;;;;;61.90;25.07;;;;;;;-6.81;84.80;101005.98;2170965;81;20918;-80
2022/12/19 01:13:46;;;;;;;60.40;24.47;;;;;;;-6.78;84.54;101000.35;2171206;81;20989;-79
2022/12/19 01:16:47;;;;;;;70.70;28.57;;;;;;;-6.81;84.35;100980.96;2170002;82;20882;-80
2022/12/19 01:19:47;;;;;;;67.37;28.93;;;;;;;-6.84;84.53;100976.80;2170090;81;20965;-81
2022/12/19 01:22:47;;;;;;;72.03;31.17;;;;;;;-6.87;84.40;100974.82;2171645;81;20950;-80
2022/12/19 01:25:48;;;;;;;65.87;27.50;;;;;;;-6.91;84.40;100970.49;2170415;81;20886;-80
2022/12/19 01:28:48;;;;;;;64.47;28.50;;;;;;;-6.95;84.45;100952.70;2170246;82;20894;-80
2022/12/19 01:31:48;;;;;;;70.60;30.13;;;;;;;-6.90;84.57;100953.26;2171330;81;21325;-79
2022/12/19 01:34:49;;;;;;;74.63;31.23;;;;;;;-6.87;84.35;100953.60;2171850;81;20973;-80
2022/12/19 01:37:49;;;;;;;77.03;30.47;;;;;;;-6.92;84.24;100958.53;2171241;81;20910;-78
2022/12/19 01:40:50;;;;;;;63.27;27.87;;;;;;;-6.97;84.35;100956.70;2170206;82;21301;-79
2022/12/19 01:43:50;;;;;;;59.10;25.13;;;;;;;-7.01;84.45;100957.45;2170288;81;20966;-79
2022/12/19 01:46:50;;;;;;;65.07;26.07;;;;;;;-7.03;84.52;100953.83;2170510;81;20964;-79
2022/12/19 01:49:51;;;;;;;73.37;31.83;;;;;;;-7.08;84.29;100958.03;2171139;81;21345;-80
2022/12/19 01:52:51;;;;;;;69.07;27.70;;;;;;;-7.11;84.78;100942.45;2172496;81;20960;-80
2022/12/19 01:55:52;;;;;;;65.83;29.17;;;;;;;-7.14;84.67;100937.02;2172526;81;20954;-80
2022/12/19 01:58:52;;;;;;;71.60;29.37;;;;;;;-7.20;84.80;100936.33;2170434;81;20922;-80
2022/12/19 02:01:52;;;;;;;64.43;28.97;;;;;;;-7.21;84.96;100916.75;2171567;81;21340;-80
2022/12/19 02:04:53;;;;;;;67.27;29.97;;;;;;;-7.26;84.78;100918.23;2170090;81;21048;-79
2022/12/19 02:07:53;;;;;;;61.40;26.33;;;;;;;-7.30;84.98;100904.66;2171066;81;20965;-80
2022/12/19 02:10:54;;;;;;;56.13;24.00;;;;;;;-7.27;85.06;100916.05;2171123;81;20980;-80
2022/12/19 02:13:54;;;;;;;67.10;28.63;;;;;;;-7.30;85.11;100905.55;2170784;81;20910;-81
2022/12/19 02:16:54;;;;;;;61.30;25.53;;;;;;;-7.36;85.03;100903.59;2171595;81;20937;-79
2022/12/19 02:19:55;;;;;;;75.07;30.43;;;;;;;-7.42;85.26;100901.63;2170418;81;20998;-80
2022/12/19 02:22:55;;;;;;;71.90;28.23;;;;;;;-7.53;85.22;100900.77;2171442;81;20981;-80
2022/12/19 02:25:56;;;;;;;67.70;27.87;;;;;;;-7.61;85.48;100891.37;2170666;82;20965;-79
2022/12/19 02:28:56;;;;;;;58.50;25.70;;;;;;;-7.63;85.48;100896.62;2171349;82;21355;-79
2022/12/19 02:31:56;;;;;;;64.30;27.70;;;;;;;-7.64;85.57;100897.36;2170429;81;20965;-80
2022/12/19 02:34:57;;;;;;;74.43;29.07;;;;;;;-7.65;85.52;100893.92;2170137;81;20981;-79
2022/12/19 02:37:57;;;;;;;61.83;25.63;;;;;;;-7.67;85.51;100890.30;2172357;82;20953;-79
2022/12/19 02:40:58;;;;;;;71.80;29.10;;;;;;;-7.66;85.67;100883.59;2171451;81;20898;-79
2022/12/19 02:43:58;;;;;;;66.80;26.87;;;;;;;-7.68;85.47;100883.42;2170684;82;20973;-79
2022/12/19 02:46:58;;;;;;;68.27;27.43;;;;;;;-7.66;85.67;100881.06;2170400;81;20992;-80
2022/12/19 02:49:59;;;;;;;65.30;28.10;;;;;;;-7.66;85.50;100883.59;2170797;81;21020;-79
2022/12/19 02:52:59;;;;;;;60.70;26.33;;;;;;;-7.71;85.58;100879.27;2172075;82;20952;-79
2022/12/19 02:56:00;;;;;;;57.83;26.63;;;;;;;-7.73;85.60;100862.97;2172604;81;21280;-79
2022/12/19 02:59:00;;;;;;;64.70;27.47;;;;;;;-7.82;85.46;100865.33;2171660;81;21005;-79
2022/12/19 03:02:01;;;;;;;67.43;27.77;;;;;;;-7.83;85.47;100858.44;2173027;81;20952;-80
2022/12/19 03:05:01;;;;;;;60.10;26.37;;;;;;;-7.88;85.47;100854.84;2173112;81;21410;-79
2022/12/19 03:08:01;;;;;;;57.77;26.90;;;;;;;-7.92;85.61;100862.45;2173248;81;20937;-79
2022/12/19 03:11:02;;;;;;;64.43;26.70;;;;;;;-7.93;85.67;100858.11;2173647;81;20886;-79
2022/12/19 03:14:02;;;;;;;65.07;25.17;;;;;;;-7.91;85.83;100841.81;2173431;81;21368;-79
2022/12/19 03:17:03;;;;;;;59.07;24.73;;;;;;;-8.00;85.70;100835.32;2173820;81;20933;-80
2022/12/19 03:20:04;;;;;;;62.47;26.37;;;;;;;-8.02;85.69;100849.09;2162897;82;21394;-79
2022/12/19 03:23:04;;;;;;;62.20;25.60;;;;;;;-8.03;85.66;100848.55;2173459;81;20933;-80
2022/12/19 03:26:05;;;;;;;67.27;26.30;;;;;;;-8.07;85.55;100850.19;2173519;81;20921;-79
2022/12/19 03:29:05;;;;;;;64.40;26.90;;;;;;;-8.09;85.62;100852.00;2173609;81;20890;-79
2022/12/19 03:32:05;;;;;;;62.13;26.17;;;;;;;-8.11;85.69;100847.12;2173879;81;20926;-80
2022/12/19 03:35:06;;;;;;;66.87;27.70;;;;;;;-8.15;85.43;100847.48;2173025;82;21426;-78
2022/12/19 03:38:06;;;;;;;67.10;26.00;;;;;;;-8.19;85.76;100840.26;2173860;81;20965;-79
2022/12/19 03:41:06;;;;;;;59.37;25.57;;;;;;;-8.23;85.54;100834.30;2173956;82;21016;-79
2022/12/19 03:44:07;;;;;;;57.30;23.93;;;;;;;-8.29;85.43;100832.31;2173667;81;20945;-79
2022/12/19 03:47:08;;;;;;;64.10;26.17;;;;;;;-8.30;85.76;100830.14;2173588;82;20973;-79
2022/12/19 03:50:08;;;;;;;58.63;26.13;;;;;;;-8.33;85.36;100826.39;2173682;81;20929;-78
2022/12/19 03:53:08;;;;;;;66.63;26.30;;;;;;;-8.34;85.66;100825.84;2173683;82;20970;-80
2022/12/19 03:56:08;;;;;;;57.87;23.83;;;;;;;-8.02;92.35;100825.01;2172764;81;20952;-80
2022/12/19 03:59:09;;;;;;;79.67;32.13;;;;;;;-5.88;100.00;100814.62;2173268;81;21324;-79
2022/12/19 04:02:11;;;;;;;66.10;28.97;;;;;;;-2.19;100.00;100800.38;2173161;82;21023;-80
2022/12/19 04:05:11;;;;;;;63.00;26.23;;;;;;;-4.18;100.00;100816.30;2173159;81;21064;-80
2022/12/19 04:08:12;;;;;;;55.63;25.50;;;;;;;-5.54;91.25;100817.83;2170192;81;21008;-79
2022/12/19 04:11:12;;;;;;;55.00;24.33;;;;;;;-6.33;86.36;100824.55;2169961;81;21004;-80
2022/12/19 04:14:12;;;;;;;55.37;24.93;;;;;;;-6.90;84.85;100825.04;2169977;81;21004;-80
2022/12/19 04:17:13;;;;;;;60.80;24.80;;;;;;;-7.37;83.86;100819.69;2169662;81;21049;-79
2022/12/19 04:20:13;;;;;;;61.20;25.83;;;;;;;-7.73;84.54;100826.20;2170037;81;21368;-78
2022/12/19 04:23:14;;;;;;;59.63;24.97;;;;;;;-7.92;85.08;100834.94;2170417;82;20984;-81
2022/12/19 04:26:14;;;;;;;52.97;23.27;;;;;;;-8.07;85.16;100840.41;2169776;81;21126;-84
2022/12/19 04:29:14;;;;;;;73.50;28.23;;;;;;;-8.19;84.97;100840.26;2170198;81;21372;-81
2022/12/19 04:32:15;;;;;;;58.80;24.53;;;;;;;-8.30;85.33;100838.11;2170323;81;20957;-78
2022/12/19 04:35:15;;;;;;;55.77;24.83;;;;;;;-8.33;85.53;100837.42;2170062;81;21048;-81
2022/12/19 04:38:16;;;;;;;53.03;23.17;;;;;;;-8.26;86.09;100832.31;2170532;81;21016;-78
2022/12/19 04:41:16;;;;;;;62.80;25.90;;;;;;;-8.30;85.65;100825.44;2171002;81;21004;-82
2022/12/19 04:44:16;;;;;;;63.80;25.50;;;;;;;-8.41;85.24;100821.33;2170814;81;21019;-81
2022/12/19 04:47:17;;;;;;;59.33;25.47;;;;;;;-8.47;85.59;100804.52;2169407;81;21418;-82
2022/12/19 04:50:17;;;;;;;52.80;25.80;;;;;;;-8.60;84.89;100808.88;2169012;81;20983;-80
2022/12/19 04:53:18;;;;;;;56.77;23.37;;;;;;;-8.69;85.89;100813.73;2168752;82;20981;-81
2022/12/19 04:56:18;;;;;;;63.93;26.93;;;;;;;-8.73;84.97;100803.97;2168821;81;21360;-80
2022/12/19 04:59:18;;;;;;;62.47;26.40;;;;;;;-8.83;84.97;100799.81;2168968;81;21028;-81
2022/12/19 05:02:19;;;;;;;62.13;25.97;;;;;;;-8.98;85.33;100792.58;2169329;81;21000;-81
2022/12/19 05:05:20;;;;;;;61.33;25.37;;;;;;;-9.06;85.52;100782.82;2170738;81;21071;-81
2022/12/19 05:08:21;;;;;;;59.30;23.07;;;;;;;-9.13;85.75;100782.81;2171787;81;21066;-81
2022/12/19 05:11:21;;;;;;;58.50;24.30;;;;;;;-9.17;85.88;100785.70;2171816;81;21402;-82
2022/12/19 05:14:22;;;;;;;62.27;25.80;;;;;;;-9.18;85.97;100780.10;2170483;82;21005;-82
2022/12/19 05:17:22;;;;;;;56.40;24.33;;;;;;;-9.20;86.31;100780.64;2170725;81;20995;-82
2022/12/19 05:20:22;;;;;;;62.80;25.07;;;;;;;-9.22;86.25;100780.82;2171606;81;21556;-80
2022/12/19 05:23:23;;;;;;;55.80;23.63;;;;;;;-9.26;86.23;100775.77;2170992;81;20965;-80
2022/12/19 05:26:23;;;;;;;57.93;23.60;;;;;;;-9.29;86.42;100778.28;2170682;82;21059;-81
2022/12/19 05:29:24;;;;;;;57.60;24.87;;;;;;;-9.31;86.37;100776.84;2170458;81;21391;-81
2022/12/19 05:32:24;;;;;;;65.40;26.83;;;;;;;-9.39;86.38;100769.96;2170890;82;21016;-82
2022/12/19 05:35:24;;;;;;;65.30;26.67;;;;;;;-9.39;86.34;100780.08;2170577;82;21067;-81
2022/12/19 05:38:25;;;;;;;65.87;26.40;;;;;;;-9.44;86.40;100784.95;2170587;81;21411;-81
2022/12/19 05:41:25;;;;;;;61.30;25.30;;;;;;;-9.43;86.47;100781.70;2171085;81;21382;-81
2022/12/19 05:44:26;;;;;;;57.10;23.27;;;;;;;-9.46;86.49;100787.28;2170563;81;20995;-78
2022/12/19 05:47:26;;;;;;;67.03;28.00;;;;;;;-9.46;86.31;100791.44;2170299;82;20984;-78
2022/12/19 05:50:27;;;;;;;56.50;25.07;;;;;;;-9.50;86.22;100786.73;2169391;82;21959;-81
2022/12/19 05:53:27;;;;;;;59.43;25.37;;;;;;;-9.56;86.05;100784.70;2170388;82;21027;-81
2022/12/19 05:56:27;;;;;;;60.23;24.57;;;;;;;-9.60;86.34;100780.00;2170745;81;21044;-81
2022/12/19 05:59:28;;;;;;;70.43;25.67;;;;;;;-9.65;86.15;100778.18;2170098;81;21035;-80
2022/12/19 06:02:28;;;;;;;65.10;24.97;;;;;;;-9.69;86.35;100769.32;2169990;81;20997;-80
2022/12/19 06:05:28;;;;;;;62.73;24.67;;;;;;;-9.71;86.36;100775.81;2168541;82;21047;-81
2022/12/19 06:08:29;;;;;;;62.20;24.80;;;;;;;-9.73;86.23;100770.94;2168411;81;21447;-82
2022/12/19 06:11:29;;;;;;;57.27;23.90;;;;;;;-9.70;86.27;100764.09;2168741;81;20961;-82
2022/12/19 06:14:30;;;;;;;64.10;26.53;;;;;;;-9.72;86.16;100766.42;2168077;81;20964;-82
2022/12/19 06:17:30;;;;;;;59.80;23.80;;;;;;;-9.76;86.08;100760.45;2167676;81;21075;-83
2022/12/19 06:20:30;;;;;;;66.13;25.60;;;;;;;-9.74;86.15;100759.37;2168061;81;20937;-82
2022/12/19 06:23:31;;;;;;;54.57;22.90;;;;;;;-9.72;86.13;100755.05;2168620;81;21016;-81
2022/12/19 06:26:31;;;;;;;52.90;23.17;;;;;;;-9.71;85.82;100755.59;2167169;81;21463;-81
2022/12/19 06:29:32;;;;;;;56.60;23.23;;;;;;;-9.71;85.71;100764.80;2169384;81;21044;-81
2022/12/19 06:32:32;;;;;;;55.27;21.90;;;;;;;-9.66;85.63;100758.68;2168039;81;20964;-82
2022/12/19 06:35:32;;;;;;;63.70;23.90;;;;;;;-9.64;85.59;100751.82;2169578;82;21016;-82
2022/12/19 06:38:36;;;;;;;59.93;24.87;;;;;;;-9.67;85.14;100757.77;2166824;81;21408;-82
2022/12/19 06:44:55;;;;;;;64.93;27.03;;;;;;;-9.67;85.10;100769.51;2167703;82;21336;-82
2022/12/19 06:47:56;;;;;;;64.70;26.57;;;;;;;-9.67;84.95;100768.25;2167242;82;21123;-82
2022/12/19 06:50:56;;;;;;;59.83;23.97;;;;;;;-9.69;84.76;100775.64;2168390;81;20977;-81
2022/12/19 06:53:56;;;;;;;59.50;26.03;;;;;;;-9.68;84.72;100771.13;2168645;81;21013;-80
2022/12/19 06:56:57;;;;;;;66.70;26.03;;;;;;;-9.64;84.48;100766.98;2168061;81;21024;-79
2022/12/19 06:59:57;;;;;;;63.00;26.60;;;;;;;-9.66;84.35;100762.11;2168365;81;20964;-80
2022/12/19 07:02:58;;;;;;;57.43;24.90;;;;;;;-9.68;84.66;100751.27;2167974;82;20977;-79
2022/12/19 07:05:58;;;;;;;64.83;27.67;;;;;;;-9.70;84.14;100752.71;2166466;82;21115;-80
2022/12/19 07:08:58;;;;;;;62.10;26.97;;;;;;;-9.71;84.20;100740.44;2166881;81;21489;-80
2022/12/19 07:11:59;;;;;;;66.23;25.77;;;;;;;-9.74;84.22;100740.06;2168292;82;21152;-80
2022/12/19 07:14:59;;;;;;;64.63;25.77;;;;;;;-9.70;84.23;100753.97;2167889;81;21003;-81
2022/12/19 07:18:00;;;;;;;65.47;25.47;;;;;;;-9.71;83.94;100753.43;2167300;81;20933;-79
2022/12/19 07:21:00;;;;;;;66.87;26.37;;;;;;;-9.70;83.86;100747.66;2166310;81;21000;-80
2022/12/19 07:24:00;;;;;;;61.17;25.50;;;;;;;-9.67;83.94;100750.19;2165943;81;21003;-80
2022/12/19 07:27:01;;;;;;;61.93;25.77;;;;;;;-9.64;83.74;100750.56;2165098;82;21071;-80
2022/12/19 07:30:01;;;;;;;63.77;26.33;;;;;;;-9.57;83.49;100737.03;2165622;82;21257;-80
2022/12/19 07:33:02;;;;;;;60.60;25.80;;;;;;;-9.55;83.43;100726.74;2165682;81;21092;-80
2022/12/19 07:36:02;;;;;;;60.73;24.03;;;;;;;-9.48;83.47;100738.52;2164909;81;21618;-81
2022/12/19 07:39:02;;;;;;;58.10;25.73;;;;;;;-9.43;83.20;100728.59;2168153;81;21000;-80
2022/12/19 07:42:03;;;;;;;54.10;22.80;;;;;;;-9.41;83.14;100723.00;2167975;81;20965;-79
2022/12/19 07:45:03;;;;;;;55.00;22.27;;;;;;;-9.37;82.86;100721.73;2168308;82;21974;-79
2022/12/19 07:48:04;;;;;;;60.57;25.00;;;;;;;-9.37;82.86;100715.42;2168649;81;21031;-80
2022/12/19 07:51:04;;;;;;;58.63;24.83;;;;;;;-9.34;82.88;100709.45;2167665;81;20992;-79
2022/12/19 07:54:07;;;;;;;58.13;23.53;;;;;;;-9.29;82.94;100714.70;2166730;81;20997;-80
2022/12/19 07:57:08;;;;;;;52.40;22.17;;;;;;;-9.22;82.83;100701.14;2166677;81;21423;-79
2022/12/19 08:00:08;;;;;;;53.83;21.40;;;;;;;-9.23;82.74;100707.83;2168367;81;21234;-79
2022/12/19 08:03:08;;;;;;;46.77;21.47;;;;;;;-9.20;82.88;100710.72;2165098;81;20983;-80
2022/12/19 08:06:09;;;;;;;54.93;23.10;;;;;;;-9.06;83.05;100708.55;2168140;81;21071;-80
2022/12/19 08:09:09;;;;;;;49.33;21.87;;;;;;;-8.98;82.72;100707.81;2167558;81;21938;-80
2022/12/19 08:12:10;;;;;;;54.73;22.33;;;;;;;-8.87;82.49;100707.80;2166594;82;21287;-80
2022/12/19 08:15:10;;;;;;;55.10;24.13;;;;;;;-8.73;82.03;100710.30;2169255;81;20921;-80
2022/12/19 08:18:11;;;;;;;50.33;23.33;;;;;;;-8.62;81.47;100726.41;2168923;81;20949;-81
2022/12/19 08:21:11;;;;;;;60.10;24.03;;;;;;;-8.51;81.21;100727.29;2169707;81;21143;-79
2022/12/19 08:24:11;;;;;;;58.20;26.00;;;;;;;-8.33;81.21;100722.53;2167895;81;20987;-81
2022/12/19 08:27:12;;;;;;;52.07;24.33;;;;;;;-8.14;80.88;100727.67;2169232;81;21015;-80
2022/12/19 08:30:12;;;;;;;59.23;25.90;;;;;;;-8.02;79.32;100730.33;2168940;82;21005;-80
2022/12/19 08:33:12;;;;;;;58.80;24.63;;;;;;;-7.94;79.65;100737.17;2169849;81;20960;-80
2022/12/19 08:36:13;;;;;;;55.63;24.23;;;;;;;-7.78;79.23;100731.87;2169512;81;21638;-80
2022/12/19 08:39:13;;;;;;;51.93;24.20;;;;;;;-7.65;78.83;100724.38;2169628;82;21005;-80
2022/12/19 08:42:14;;;;;;;55.03;24.07;;;;;;;-7.58;78.29;100723.06;2170028;81;21004;-81
2022/12/19 08:45:14;;;;;;;57.63;25.23;;;;;;;-7.55;77.61;100698.05;2169982;81;21419;-80
2022/12/19 08:48:15;;;;;;;64.63;28.17;;;;;;;-7.66;76.66;100706.09;2169746;81;21072;-80
2022/12/19 08:51:15;;;;;;;66.03;29.00;;;;;;;-7.63;77.96;100689.95;2169621;81;20972;-81
2022/12/19 08:54:15;;;;;;;63.73;28.13;;;;;;;-7.55;77.87;100682.83;2169723;81;20936;-80
2022/12/19 08:57:16;;;;;;;64.90;28.47;;;;;;;-7.45;77.14;100691.99;2169368;81;21028;-81
2022/12/19 09:00:16;;;;;;;59.57;25.43;;;;;;;-7.44;77.51;100695.97;2169351;81;20973;-81
2022/12/19 09:03:16;;;;;;;61.93;27.47;;;;;;;-7.35;76.22;100693.92;2169710;81;21355;-81
2022/12/19 09:06:21;;;;;;;63.83;28.20;;;;;;;-7.27;76.96;100685.15;2167802;81;21055;-80
2022/12/19 09:09:19;;;;;;;72.10;30.53;;;;;;;-7.15;76.52;100680.15;2158074;82;21035;-81
2022/12/19 09:12:20;;;;;;;62.07;28.17;;;;;;;-7.00;76.57;100683.45;2167510;81;21407;-80
2022/12/19 09:15:20;;;;;;;59.57;26.27;;;;;;;-6.84;76.15;100686.96;2166805;82;21728;-81
2022/12/19 09:18:20;;;;;;;69.97;30.83;;;;;;;-6.75;75.63;100677.80;2166741;82;20926;-80
2022/12/19 09:21:21;;;;;;;64.40;28.13;;;;;;;-6.68;75.76;100675.55;2166915;82;21021;-80
2022/12/19 09:24:21;;;;;;;66.10;30.13;;;;;;;-6.58;75.97;100678.34;2167484;81;21463;-79
2022/12/19 09:27:22;;;;;;;66.50;29.53;;;;;;;-6.50;75.23;100672.81;2167690;81;21024;-80
2022/12/19 09:30:22;;;;;;;68.67;31.17;;;;;;;-6.47;75.05;100671.88;2168103;81;21071;-80
2022/12/19 09:33:22;;;;;;;66.60;28.63;;;;;;;-6.47;74.71;100670.23;2167385;81;21387;-81
2022/12/19 09:36:23;;;;;;;71.27;30.77;;;;;;;-6.47;74.31;100654.98;2166827;81;21000;-80
2022/12/19 09:39:23;;;;;;;68.03;30.83;;;;;;;-6.40;74.72;100660.72;2167680;82;21051;-81
2022/12/19 09:42:24;;;;;;;58.53;26.80;;;;;;;-6.31;74.68;100652.44;2167342;81;20992;-80
2022/12/19 09:45:24;;;;;;;63.83;29.60;;;;;;;-6.19;74.42;100641.39;2167599;81;21012;-81
2022/12/19 09:48:24;;;;;;;74.10;31.77;;;;;;;-6.24;74.14;100629.84;2167975;81;21407;-81
2022/12/19 09:51:25;;;;;;;75.03;32.87;;;;;;;-6.16;73.26;100630.27;2167815;81;21000;-80
2022/12/19 09:54:25;;;;;;;63.93;29.10;;;;;;;-6.11;73.91;100624.03;2168709;81;20972;-82
2022/12/19 09:57:26;;;;;;;60.60;28.97;;;;;;;-5.96;74.11;100618.04;2168532;81;21048;-82
2022/12/19 10:00:26;;;;;;;70.03;32.07;;;;;;;-5.99;73.35;100607.55;2168510;81;21455;-80
2022/12/19 10:03:27;;;;;;;68.70;31.37;;;;;;;-5.88;73.97;100612.07;2168346;81;20977;-81
2022/12/19 10:06:27;;;;;;;64.47;31.40;;;;;;;-5.74;73.19;100618.95;2166787;81;21292;-81
2022/12/19 10:09:27;;;;;;;72.77;32.57;;;;;;;-5.66;73.23;100614.28;2168280;81;21000;-80
2022/12/19 10:12:28;;;;;;;69.07;30.40;;;;;;;-5.71;73.15;100594.73;2169128;81;21410;-80
2022/12/19 10:15:28;;;;;;;72.37;31.80;;;;;;;-5.69;72.45;100577.09;2170486;82;21000;-82
2022/12/19 10:18:29;;;;;;;68.13;30.20;;;;;;;-5.62;72.58;100575.70;2168553;81;21031;-81
2022/12/19 10:21:29;;;;;;;66.83;29.17;;;;;;;-5.74;72.24;100574.44;2168589;81;21038;-80
2022/12/19 10:24:30;;;;;;;66.63;30.07;;;;;;;-5.87;72.20;100570.64;2167613;81;20972;-81
2022/12/19 10:27:30;;;;;;;70.10;31.03;;;;;;;-5.98;72.53;100568.67;2169217;81;21048;-79
2022/12/19 10:30:30;;;;;;;66.57;30.00;;;;;;;-6.05;72.67;100574.23;2169646;81;20985;-81
2022/12/19 10:33:31;;;;;;;68.37;31.07;;;;;;;-6.04;72.93;100582.39;2168125;81;21368;-81
2022/12/19 10:36:31;;;;;;;68.20;31.07;;;;;;;-6.04;72.52;100571.84;2167546;81;21031;-81
2022/12/19 10:39:32;;;;;;;68.60;29.63;;;;;;;-6.06;73.00;100582.23;2167252;81;21012;-81
2022/12/19 10:42:32;;;;;;;63.17;27.57;;;;;;;-6.03;72.35;100574.02;2167549;82;20961;-84
2022/12/19 10:45:32;;;;;;;64.87;30.87;;;;;;;-6.01;72.70;100556.01;2168161;81;21661;-82
2022/12/19 10:48:33;;;;;;;70.13;31.40;;;;;;;-5.99;72.86;100554.16;2167051;81;21529;-83
2022/12/19 10:51:33;;;;;;;74.33;30.23;;;;;;;-5.96;72.42;100561.20;2166866;81;20965;-80
2022/12/19 10:54:34;;;;;;;63.67;28.93;;;;;;;-5.89;73.02;100558.55;2167380;82;20972;-80
2022/12/19 10:57:34;;;;;;;62.43;28.50;;;;;;;-5.82;72.29;100549.50;2167720;81;20980;-80
2022/12/19 11:00:34;;;;;;;69.10;29.07;;;;;;;-5.85;71.56;100537.36;2167710;82;21467;-80
2022/12/19 11:03:35;;;;;;;72.33;30.93;;;;;;;-5.86;71.94;100531.75;2170076;81;20937;-81
2022/12/19 11:06:35;;;;;;;65.20;31.13;;;;;;;-5.75;72.26;100533.22;2168004;81;21048;-81
2022/12/19 11:09:36;;;;;;;69.33;31.67;;;;;;;-5.63;72.26;100534.47;2166874;81;21012;-80
2022/12/19 11:12:36;;;;;;;74.00;31.70;;;;;;;-5.49;71.98;100524.03;2168232;82;20976;-80
2022/12/19 11:15:37;;;;;;;67.77;31.57;;;;;;;-5.46;71.57;100520.16;2167115;81;20976;-81
2022/12/19 11:18:37;;;;;;;69.67;31.03;;;;;;;-5.36;71.78;100517.26;2167333;81;20937;-81
2022/12/19 11:21:38;;;;;;;79.70;33.97;;;;;;;-5.52;70.44;100508.46;2168470;81;20936;-83
2022/12/19 11:24:38;;;;;;;72.47;31.43;;;;;;;-5.71;71.05;100512.06;2168126;81;20992;-81
2022/12/19 11:27:38;;;;;;;66.17;30.80;;;;;;;-5.79;71.46;100504.92;2168521;81;21000;-81
2022/12/19 11:30:39;;;;;;;66.20;30.00;;;;;;;-5.73;72.32;100503.38;2167395;81;20996;-80
2022/12/19 11:33:39;;;;;;;72.80;32.17;;;;;;;-5.62;71.81;100495.56;2166986;81;21027;-82
2022/12/19 11:36:39;;;;;;;69.80;32.10;;;;;;;-5.54;72.00;100475.60;2168363;81;21086;-83
2022/12/19 11:39:40;;;;;;;70.27;32.97;;;;;;;-5.49;71.59;100474.05;2168335;82;20945;-80
2022/12/19 11:42:40;;;;;;;71.43;32.67;;;;;;;-5.42;72.32;100478.47;2169346;81;20929;-81
2022/12/19 11:45:41;;;;;;;74.20;33.33;;;;;;;-5.41;71.49;100470.98;2168857;81;21008;-81
2022/12/19 11:48:41;;;;;;;77.30;33.67;;;;;;;-5.40;71.88;100475.34;2168025;81;21036;-82
2022/12/19 11:51:41;;;;;;;70.00;32.13;;;;;;;-5.42;70.63;100473.38;2167756;81;20932;-81
2022/12/19 11:54:42;;;;;;;64.87;31.80;;;;;;;-5.55;71.02;100455.99;2167740;81;21367;-81
2022/12/19 11:57:42;;;;;;;74.63;32.40;;;;;;;-5.36;71.53;100446.00;2166631;81;20969;-81
2022/12/19 12:00:43;;;;;;;65.10;31.80;;;;;;;-5.35;71.92;100456.33;2166935;81;21040;-81
2022/12/19 12:03:43;;;;;;;76.63;34.27;;;;;;;-5.32;71.84;100452.81;2168298;81;20995;-82
2022/12/19 12:06:44;;;;;;;69.47;30.67;;;;;;;-5.31;71.80;100446.98;2167267;81;21298;-82
2022/12/19 12:09:45;;;;;;;82.00;35.30;;;;;;;-5.25;71.92;100442.48;2167504;81;20946;-81
2022/12/19 12:12:44;;;;;;;69.33;31.80;;;;;;;-5.20;71.87;100443.87;2167529;81;20968;-81
2022/12/19 12:15:45;;;;;;;65.00;30.60;;;;;;;-5.15;71.62;100440.52;2167315;81;21012;-80
2022/12/19 12:18:45;;;;;;;74.83;32.53;;;;;;;-5.11;71.65;100431.52;2166645;81;21030;-81
2022/12/19 12:21:46;;;;;;;77.80;34.73;;;;;;;-5.16;71.83;100424.34;2168123;81;21032;-81
2022/12/19 12:24:46;;;;;;;84.90;33.60;;;;;;;-5.18;71.70;100424.56;2166621;81;20969;-77
2022/12/19 12:27:46;;;;;;;77.03;34.13;;;;;;;-5.14;72.15;100427.03;2164163;81;21562;-81
2022/12/19 12:30:47;;;;;;;70.80;31.70;;;;;;;-5.12;71.95;100417.89;2168597;81;21033;-83
2022/12/19 12:33:47;;;;;;;63.07;30.90;;;;;;;-5.11;71.78;100423.51;2168203;82;20941;-80
2022/12/19 12:36:48;;;;;;;77.50;33.63;;;;;;;-5.09;71.90;100413.10;2167754;81;21094;-81
2022/12/19 12:39:48;;;;;;;72.00;33.37;;;;;;;-5.18;72.07;100415.65;2166408;82;21011;-81
2022/12/19 12:42:48;;;;;;;67.63;31.77;;;;;;;-5.23;71.56;100413.37;2166519;81;20953;-80
2022/12/19 12:45:49;;;;;;;70.93;34.53;;;;;;;-5.39;71.85;100402.43;2167681;81;20991;-81
2022/12/19 12:48:49;;;;;;;79.93;33.73;;;;;;;-5.45;72.40;100411.62;2167369;81;21493;-82
2022/12/19 12:51:50;;;;;;;70.63;31.90;;;;;;;-5.46;72.69;100398.38;2165623;81;21004;-81
2022/12/19 12:54:50;;;;;;;68.00;31.53;;;;;;;-5.47;72.63;100400.40;2166794;81;21055;-82
2022/12/19 12:57:50;;;;;;;76.57;34.17;;;;;;;-5.54;72.65;100388.72;2167430;81;21799;-79
2022/12/19 13:00:51;;;;;;;77.53;35.00;;;;;;;-5.61;72.76;100385.42;2167527;81;21415;-82
2022/12/19 13:03:51;;;;;;;70.80;32.40;;;;;;;-5.63;73.35;100384.37;2167753;81;21004;-80
2022/12/19 13:06:52;;;;;;;68.67;30.90;;;;;;;-5.65;73.53;100385.86;2168341;81;21337;-81
2022/12/19 13:09:52;;;;;;;65.53;32.03;;;;;;;-5.67;73.76;100383.54;2169222;81;21030;-82
2022/12/19 13:12:58;;;;;;;74.90;33.03;;;;;;;-5.62;74.06;100379.44;2169304;81;20972;-82
2022/12/19 13:15:59;;;;;;;73.93;33.10;;;;;;;-5.67;73.79;100375.53;2169331;82;20957;-80
2022/12/19 13:19:00;;;;;;;75.00;31.87;;;;;;;-5.77;73.83;100377.54;2169063;81;20996;-82
2022/12/19 13:22:00;;;;;;;79.07;34.97;;;;;;;-5.75;74.12;100374.25;2169049;81;21000;-83
2022/12/19 13:25:00;;;;;;;77.77;35.07;;;;;;;-5.80;74.03;100377.23;2169331;81;21004;-82
2022/12/19 13:28:01;;;;;;;74.97;34.13;;;;;;;-5.84;74.25;100376.41;2168951;81;21055;-83
2022/12/19 13:31:03;;;;;;;73.10;33.70;;;;;;;-5.88;74.37;100381.03;2169400;81;21753;-84
2022/12/19 13:34:03;;;;;;;76.57;32.97;;;;;;;-5.92;74.72;100378.59;2169640;81;20957;-83
2022/12/19 13:37:03;;;;;;;77.97;33.53;;;;;;;-5.94;74.84;100369.02;2169432;82;21443;-83
2022/12/19 13:40:04;;;;;;;78.93;36.33;;;;;;;-6.03;74.78;100365.17;2169503;81;20981;-84
2022/12/19 13:46:23;;;;;;;79.60;33.43;;;;;;;-6.14;75.03;100364.06;2169669;82;20941;-83